Time;durP1;ratioP1;P1;durP2;ratioP2;P2;SDS_P1;SDS_P2;PMS_P1;PMS_P2;Temp;Humidity;BMP_temperature;BMP_pressure;BME280_temperature;BME280_humidity;BME280_pressure;Samples;Min_cycle;Max_cycle;Signal;HPM_P1;HPM_P2
2022/10/16 00:02:02;;;;;;;0.10;0.10;;;;;;;;;;4957838;28;20618;-90
2022/10/16 00:04:28;;;;;;;0.10;0.10;;;;;;;;;;4958121;28;20061;-89
2022/10/16 00:06:54;;;;;;;0.10;0.10;;;;;;;;;;4957954;28;20129;-89
2022/10/16 00:09:20;;;;;;;0.10;0.10;;;;;;;;;;4957756;28;20046;-89
2022/10/16 00:11:46;;;;;;;0.10;0.10;;;;;;;;;;4941414;28;20054;-89
2022/10/16 00:14:14;;;;;;;0.10;0.10;;;;;;;;;;4957722;28;20129;-90
2022/10/16 00:16:40;;;;;;;0.10;0.10;;;;;;;;;;4941621;28;20046;-89
2022/10/16 00:19:06;;;;;;;0.15;0.15;;;;;;;;;;4941581;28;20455;-89
2022/10/16 00:21:33;;;;;;;0.10;0.10;;;;;;;;;;4957385;28;20072;-89
2022/10/16 00:24:00;;;;;;;0.10;0.10;;;;;;;;;;4957521;28;20522;-89
2022/10/16 00:26:26;;;;;;;0.10;0.10;;;;;;;;;;4941472;28;20050;-88
2022/10/16 00:28:52;;;;;;;0.10;0.10;;;;;;;;;;4941374;28;20035;-88
2022/10/16 00:31:18;;;;;;;0.10;0.10;;;;;;;;;;4957196;28;20100;-89
2022/10/16 00:33:44;;;;;;;0.10;0.10;;;;;;;;;;4957280;28;20050;-89
2022/10/16 00:36:11;;;;;;;0.10;0.10;;;;;;;;;;4957349;28;20039;-88
2022/10/16 00:38:37;;;;;;;0.10;0.10;;;;;;;;;;4941184;28;20038;-91
2022/10/16 00:41:03;;;;;;;0.10;0.10;;;;;;;;;;4956919;28;20043;-91
2022/10/16 00:43:40;;;;;;;0.10;0.10;;;;;;;;;;4941424;28;20070;-90
2022/10/16 00:46:11;;;;;;;0.10;0.10;;;;;;;;;;4941008;28;20039;-90
2022/10/16 00:48:37;;;;;;;0.13;0.13;;;;;;;;;;4941104;28;20125;-89
2022/10/16 00:51:03;;;;;;;0.10;0.10;;;;;;;;;;4940902;28;20050;-89
2022/10/16 00:53:29;;;;;;;0.10;0.10;;;;;;;;;;4956846;28;20113;-91
2022/10/16 00:55:55;;;;;;;0.10;0.10;;;;;;;;;;4956852;28;20480;-90
2022/10/16 00:58:21;;;;;;;0.10;0.10;;;;;;;;;;4940649;28;20109;-91
2022/10/16 01:00:47;;;;;;;0.10;0.10;;;;;;;;;;4940714;28;20403;-90
2022/10/16 01:03:27;;;;;;;0.10;0.10;;;;;;;;;;4941055;28;20051;-91
2022/10/16 01:05:57;;;;;;;0.10;0.10;;;;;;;;;;4940693;28;20043;-90
2022/10/16 01:08:26;;;;;;;0.10;0.10;;;;;;;;;;4956849;28;20511;-91
2022/10/16 01:11:00;;;;;;;0.10;0.10;;;;;;;;;;4972798;28;20050;-91
2022/10/16 01:13:31;;;;;;;0.10;0.10;;;;;;;;;;4940494;28;20149;-91
2022/10/16 01:15:57;;;;;;;0.10;0.10;;;;;;;;;;4940752;28;20051;-91
2022/10/16 01:18:26;;;;;;;0.10;0.10;;;;;;;;;;4956282;28;20046;-91
2022/10/16 01:20:54;;;;;;;0.10;0.10;;;;;;;;;;4956172;28;20399;-90
2022/10/16 01:23:23;;;;;;;0.10;0.10;;;;;;;;;;4940328;28;20043;-90
2022/10/16 01:25:54;;;;;;;0.10;0.10;;;;;;;;;;4956457;28;20038;-89
2022/10/16 01:28:22;;;;;;;0.10;0.10;;;;;;;;;;4956694;28;20131;-89
2022/10/16 01:30:48;;;;;;;0.10;0.10;;;;;;;;;;4940218;28;20042;-89
2022/10/16 01:33:14;;;;;;;0.10;0.10;;;;;;;;;;4940251;28;20051;-90
2022/10/16 01:35:42;;;;;;;0.20;0.20;;;;;;;;;;4972071;28;20134;-90
2022/10/16 01:38:22;;;;;;;0.10;0.10;;;;;;;;;;4940134;28;20073;-90
2022/10/16 01:40:50;;;;;;;0.10;0.10;;;;;;;;;;4940171;28;20105;-90
2022/10/16 01:43:16;;;;;;;0.10;0.10;;;;;;;;;;4940059;28;20042;-90
2022/10/16 01:45:42;;;;;;;0.10;0.10;;;;;;;;;;4940039;28;20050;-90
2022/10/16 01:48:09;;;;;;;0.10;0.10;;;;;;;;;;4956239;28;20049;-90
2022/10/16 01:50:37;;;;;;;0.10;0.10;;;;;;;;;;4956129;28;20050;-89
2022/10/16 01:53:03;;;;;;;0.10;0.10;;;;;;;;;;4956031;28;20065;-91
2022/10/16 01:55:36;;;;;;;1.00;0.65;;;;;;;;;;4940269;28;20492;-90
2022/10/16 01:58:02;;;;;;;0.57;0.57;;;;;;;;;;4940183;28;20093;-89
2022/10/16 02:00:28;;;;;;;0.10;0.10;;;;;;;;;;4939778;28;20042;-90
2022/10/16 02:02:55;;;;;;;0.10;0.10;;;;;;;;;;4940107;28;20710;-89
2022/10/16 02:05:28;;;;;;;0.10;0.10;;;;;;;;;;4955925;28;20039;-90
2022/10/16 02:07:54;;;;;;;0.10;0.10;;;;;;;;;;4955849;28;20065;-90
2022/10/16 02:10:21;;;;;;;0.25;0.25;;;;;;;;;;4941673;28;20046;-89
2022/10/16 02:12:58;;;;;;;0.10;0.10;;;;;;;;;;4943548;28;20583;-89
2022/10/16 02:15:24;;;;;;;0.10;0.10;;;;;;;;;;4975782;28;20038;-90
2022/10/16 02:17:50;;;;;;;0.10;0.10;;;;;;;;;;4943947;28;20469;-90
2022/10/16 02:20:16;;;;;;;0.10;0.10;;;;;;;;;;4943937;28;20253;-90
2022/10/16 02:22:46;;;;;;;0.10;0.10;;;;;;;;;;4943588;28;20078;-89
2022/10/16 02:25:31;;;;;;;0.20;0.20;;;;;;;;;;4943573;28;20042;-89
2022/10/16 02:28:12;;;;;;;0.10;0.10;;;;;;;;;;4943458;28;20488;-89
2022/10/16 02:30:40;;;;;;;0.10;0.10;;;;;;;;;;4959640;28;20129;-89
2022/10/16 02:33:07;;;;;;;0.20;0.20;;;;;;;;;;4943717;28;20078;-89
2022/10/16 02:35:33;;;;;;;0.10;0.10;;;;;;;;;;4943475;28;20053;-89
2022/10/16 02:37:59;;;;;;;0.10;0.10;;;;;;;;;;4959658;28;20043;-90
2022/10/16 02:40:25;;;;;;;0.10;0.10;;;;;;;;;;4959219;28;20046;-90
2022/10/16 02:42:52;;;;;;;0.17;0.17;;;;;;;;;;4943691;28;20038;-90
2022/10/16 02:45:18;;;;;;;0.10;0.10;;;;;;;;;;4959178;28;20049;-89
2022/10/16 02:47:44;;;;;;;0.10;0.10;;;;;;;;;;4959233;28;20050;-91
2022/10/16 02:50:10;;;;;;;0.10;0.10;;;;;;;;;;4943224;28;20045;-91
2022/10/16 02:52:36;;;;;;;0.10;0.10;;;;;;;;;;4959158;28;20500;-91
2022/10/16 02:55:02;;;;;;;0.10;0.10;;;;;;;;;;4959403;28;20053;-91
2022/10/16 02:57:28;;;;;;;0.10;0.10;;;;;;;;;;4959044;28;20042;-90
2022/10/16 02:59:54;;;;;;;0.10;0.10;;;;;;;;;;4958894;28;20385;-90
2022/10/16 03:02:20;;;;;;;0.45;0.45;;;;;;;;;;4958750;28;20070;-89
2022/10/16 03:04:46;;;;;;;0.10;0.10;;;;;;;;;;4943099;28;20130;-90
2022/10/16 03:07:12;;;;;;;0.10;0.10;;;;;;;;;;4943214;28;20457;-91
2022/10/16 03:09:38;;;;;;;0.10;0.10;;;;;;;;;;4943108;28;20404;-91
2022/10/16 03:12:04;;;;;;;0.10;0.10;;;;;;;;;;4958523;28;20097;-91
2022/10/16 03:14:30;;;;;;;0.10;0.10;;;;;;;;;;4942910;28;20039;-91
2022/10/16 03:16:56;;;;;;;1.08;0.35;;;;;;;;;;4942992;28;20039;-91
2022/10/16 03:19:22;;;;;;;0.10;0.10;;;;;;;;;;4942583;28;20056;-91
2022/10/16 03:21:48;;;;;;;0.10;0.10;;;;;;;;;;4958490;28;20039;-91
2022/10/16 03:24:14;;;;;;;0.10;0.10;;;;;;;;;;4958631;28;20046;-90
2022/10/16 03:26:40;;;;;;;0.10;0.10;;;;;;;;;;4942603;28;20250;-90
2022/10/16 03:29:06;;;;;;;0.20;0.10;;;;;;;;;;4958561;28;20070;-90
2022/10/16 03:31:33;;;;;;;0.10;0.10;;;;;;;;;;4942297;28;20122;-91
2022/10/16 03:33:59;;;;;;;0.10;0.10;;;;;;;;;;4958384;28;20043;-91
2022/10/16 03:36:25;;;;;;;0.10;0.10;;;;;;;;;;4942591;28;20154;-90
2022/10/16 03:38:51;;;;;;;0.10;0.10;;;;;;;;;;4958442;28;20465;-90
2022/10/16 03:41:16;;;;;;;0.10;0.10;;;;;;;;;;4942187;28;20074;-90
2022/10/16 03:43:42;;;;;;;0.10;0.10;;;;;;;;;;4958762;28;20085;-89
2022/10/16 03:46:08;;;;;;;0.10;0.10;;;;;;;;;;4958423;28;20534;-89
2022/10/16 03:48:34;;;;;;;0.10;0.10;;;;;;;;;;4958090;28;20038;-90
2022/10/16 03:51:00;;;;;;;0.10;0.10;;;;;;;;;;4958360;28;20262;-89
2022/10/16 03:53:26;;;;;;;0.10;0.10;;;;;;;;;;4942492;28;20046;-90
2022/10/16 03:55:52;;;;;;;0.10;0.10;;;;;;;;;;4958283;28;20047;-90
2022/10/16 03:58:19;;;;;;;0.10;0.10;;;;;;;;;;4942637;28;20069;-90
2022/10/16 04:00:46;;;;;;;0.10;0.10;;;;;;;;;;4957956;28;20042;-90
2022/10/16 04:03:12;;;;;;;0.10;0.10;;;;;;;;;;4942273;28;20404;-89
2022/10/16 04:05:38;;;;;;;0.10;0.10;;;;;;;;;;4957916;28;20050;-90
2022/10/16 04:08:04;;;;;;;0.10;0.10;;;;;;;;;;4941797;28;20111;-90
2022/10/16 04:10:30;;;;;;;0.10;0.10;;;;;;;;;;4942172;28;20045;-91
2022/10/16 04:12:56;;;;;;;0.17;0.17;;;;;;;;;;4957664;28;20062;-90
2022/10/16 04:15:23;;;;;;;0.10;0.10;;;;;;;;;;4941656;28;20054;-89
2022/10/16 04:17:49;;;;;;;0.10;0.10;;;;;;;;;;4957539;28;20042;-90
2022/10/16 04:20:15;;;;;;;0.10;0.10;;;;;;;;;;4973515;28;20357;-89
2022/10/16 04:22:41;;;;;;;0.10;0.10;;;;;;;;;;4941828;28;20042;-89
2022/10/16 04:25:07;;;;;;;0.20;0.20;;;;;;;;;;4941510;28;20502;-89
2022/10/16 04:27:33;;;;;;;0.10;0.10;;;;;;;;;;4957356;28;20126;-89
2022/10/16 04:29:59;;;;;;;0.10;0.10;;;;;;;;;;4941356;28;20097;-89
2022/10/16 04:32:25;;;;;;;0.13;0.13;;;;;;;;;;4956941;28;20086;-89
2022/10/16 04:34:51;;;;;;;0.10;0.10;;;;;;;;;;4957388;28;20470;-90
2022/10/16 04:37:17;;;;;;;0.20;0.20;;;;;;;;;;4957056;28;20042;-89
2022/10/16 04:39:44;;;;;;;0.10;0.10;;;;;;;;;;4941234;28;20505;-89
2022/10/16 04:42:10;;;;;;;0.10;0.10;;;;;;;;;;4941517;28;20046;-89
2022/10/16 04:44:36;;;;;;;0.10;0.10;;;;;;;;;;4956912;28;20527;-90
2022/10/16 04:47:02;;;;;;;0.10;0.10;;;;;;;;;;4940955;28;20507;-90
2022/10/16 04:49:28;;;;;;;0.10;0.10;;;;;;;;;;4956832;28;20035;-91
2022/10/16 04:51:54;;;;;;;0.10;0.10;;;;;;;;;;4940965;28;20046;-90
2022/10/16 04:54:20;;;;;;;0.10;0.10;;;;;;;;;;4973045;28;20054;-90
2022/10/16 04:56:47;;;;;;;0.10;0.10;;;;;;;;;;4940843;28;20045;-90
2022/10/16 04:59:14;;;;;;;0.10;0.10;;;;;;;;;;4956643;28;20097;-90
2022/10/16 05:01:40;;;;;;;0.60;0.40;;;;;;;;;;4956647;28;20489;-90
2022/10/16 05:04:06;;;;;;;0.10;0.10;;;;;;;;;;4940747;28;20054;-89
2022/10/16 05:06:32;;;;;;;0.10;0.10;;;;;;;;;;4956653;28;20042;-90
2022/10/16 05:08:58;;;;;;;0.10;0.10;;;;;;;;;;4956565;28;20038;-90
2022/10/16 05:11:24;;;;;;;0.10;0.10;;;;;;;;;;4940329;28;20043;-90
2022/10/16 05:13:50;;;;;;;0.10;0.10;;;;;;;;;;4940531;28;20381;-89
2022/10/16 05:16:16;;;;;;;0.10;0.10;;;;;;;;;;4956675;28;20093;-89
2022/10/16 05:18:42;;;;;;;0.10;0.10;;;;;;;;;;4940579;28;20042;-90
2022/10/16 05:21:08;;;;;;;0.10;0.10;;;;;;;;;;4940343;28;20086;-90
2022/10/16 05:23:34;;;;;;;0.13;0.13;;;;;;;;;;4956420;28;20038;-89
2022/10/16 05:26:00;;;;;;;0.10;0.10;;;;;;;;;;4972514;28;20039;-90
2022/10/16 05:28:26;;;;;;;0.10;0.10;;;;;;;;;;4940396;28;20118;-89
2022/10/16 05:30:52;;;;;;;0.10;0.10;;;;;;;;;;4940219;28;20126;-91
2022/10/16 05:33:20;;;;;;;0.10;0.10;;;;;;;;;;4940454;28;20492;-90
2022/10/16 05:35:47;;;;;;;0.43;0.30;;;;;;;;;;4956412;28;20058;-90
2022/10/16 05:38:13;;;;;;;0.10;0.10;;;;;;;;;;4956131;28;20078;-91
2022/10/16 05:40:39;;;;;;;0.10;0.10;;;;;;;;;;4940032;28;20128;-90
2022/10/16 05:43:05;;;;;;;0.20;0.20;;;;;;;;;;4940043;28;20050;-90
2022/10/16 05:45:31;;;;;;;0.43;0.40;;;;;;;;;;4939332;28;20039;-91
2022/10/16 05:47:57;;;;;;;0.10;0.10;;;;;;;;;;4971955;28;20134;-90
2022/10/16 05:50:23;;;;;;;0.10;0.10;;;;;;;;;;4956145;28;20093;-90
2022/10/16 05:52:49;;;;;;;0.10;0.10;;;;;;;;;;4956252;28;20117;-90
2022/10/16 05:55:15;;;;;;;0.10;0.10;;;;;;;;;;4940165;28;20042;-90
2022/10/16 05:57:41;;;;;;;0.20;0.20;;;;;;;;;;4940072;28;20043;-90
2022/10/16 06:00:07;;;;;;;0.10;0.10;;;;;;;;;;4956218;28;20053;-89
2022/10/16 06:02:33;;;;;;;0.10;0.10;;;;;;;;;;4955838;28;20050;-90
2022/10/16 06:05:01;;;;;;;0.10;0.10;;;;;;;;;;4939848;28;20346;-89
2022/10/16 06:07:27;;;;;;;0.10;0.10;;;;;;;;;;4939739;28;20045;-90
2022/10/16 06:09:53;;;;;;;0.10;0.10;;;;;;;;;;4955837;28;20121;-90
2022/10/16 06:12:22;;;;;;;0.10;0.10;;;;;;;;;;4956066;28;20178;-90
2022/10/16 06:14:48;;;;;;;0.10;0.10;;;;;;;;;;4939932;28;20038;-89
2022/10/16 06:17:14;;;;;;;0.10;0.10;;;;;;;;;;4955764;28;20045;-90
2022/10/16 06:19:40;;;;;;;0.10;0.10;;;;;;;;;;4939613;28;20134;-90
2022/10/16 06:22:06;;;;;;;0.10;0.10;;;;;;;;;;4955629;28;20058;-89
2022/10/16 06:24:32;;;;;;;0.10;0.10;;;;;;;;;;4955901;28;20047;-90
2022/10/16 06:26:58;;;;;;;0.10;0.10;;;;;;;;;;4955539;28;20572;-90
2022/10/16 06:29:24;;;;;;;0.40;0.40;;;;;;;;;;4939856;28;20056;-91
2022/10/16 06:31:50;;;;;;;0.10;0.10;;;;;;;;;;4956006;28;20038;-90
2022/10/16 06:34:16;;;;;;;0.10;0.10;;;;;;;;;;4955676;28;20038;-89
2022/10/16 06:36:43;;;;;;;0.20;0.20;;;;;;;;;;4939904;28;20074;-90
2022/10/16 06:39:09;;;;;;;0.30;0.30;;;;;;;;;;4955474;28;20046;-90
2022/10/16 06:41:35;;;;;;;0.10;0.10;;;;;;;;;;4971358;28;20129;-91
2022/10/16 06:44:01;;;;;;;0.10;0.10;;;;;;;;;;4939831;28;20039;-92
2022/10/16 06:46:27;;;;;;;0.10;0.10;;;;;;;;;;4955586;28;20043;-89
2022/10/16 06:48:53;;;;;;;0.20;0.20;;;;;;;;;;4939468;28;20070;-89
2022/10/16 06:51:20;;;;;;;0.10;0.10;;;;;;;;;;4955759;28;20496;-89
2022/10/16 06:53:48;;;;;;;0.10;0.10;;;;;;;;;;4955363;28;20457;-90
2022/10/16 06:56:24;;;;;;;0.25;0.25;;;;;;;;;;4956983;28;20050;-89
2022/10/16 06:58:50;;;;;;;0.17;0.17;;;;;;;;;;4943592;28;20377;-89
2022/10/16 07:01:17;;;;;;;0.20;0.20;;;;;;;;;;4942862;28;20050;-91
2022/10/16 07:03:43;;;;;;;0.10;0.10;;;;;;;;;;4943009;28;20126;-90
2022/10/16 07:06:10;;;;;;;0.10;0.10;;;;;;;;;;4943245;28;20038;-89
2022/10/16 07:08:39;;;;;;;0.10;0.10;;;;;;;;;;4960293;28;20050;-92
2022/10/16 07:11:06;;;;;;;0.10;0.10;;;;;;;;;;4943107;28;20384;-88
2022/10/16 07:13:36;;;;;;;0.10;0.10;;;;;;;;;;4958528;28;20079;-89
2022/10/16 07:16:06;;;;;;;0.15;0.15;;;;;;;;;;4958717;28;20042;-89
2022/10/16 07:18:32;;;;;;;0.10;0.10;;;;;;;;;;4958835;28;20563;-89
2022/10/16 07:21:07;;;;;;;0.10;0.10;;;;;;;;;;4958128;28;20038;-90
2022/10/16 07:23:33;;;;;;;0.10;0.10;;;;;;;;;;4942428;28;20045;-90
2022/10/16 07:26:00;;;;;;;0.10;0.10;;;;;;;;;;4942574;28;20039;-91
2022/10/16 07:28:25;;;;;;;0.10;0.10;;;;;;;;;;4942358;28;20039;-90
2022/10/16 07:30:52;;;;;;;0.17;0.17;;;;;;;;;;4942558;28;20484;-92
2022/10/16 07:33:18;;;;;;;0.10;0.10;;;;;;;;;;4942500;28;20373;-92
2022/10/16 07:35:54;;;;;;;0.10;0.10;;;;;;;;;;4942195;28;20049;-93
2022/10/16 07:38:20;;;;;;;0.10;0.10;;;;;;;;;;4942887;28;20055;-92
2022/10/16 07:40:46;;;;;;;0.10;0.10;;;;;;;;;;4932309;29;20050;-89
2022/10/16 07:43:12;;;;;;;0.10;0.10;;;;;;;;;;4939461;29;20127;-91
2022/10/16 07:45:38;;;;;;;0.10;0.10;;;;;;;;;;4932959;28;20045;-91
2022/10/16 07:48:04;;;;;;;0.10;0.10;;;;;;;;;;4957945;28;20130;-90
2022/10/16 07:50:30;;;;;;;0.10;0.10;;;;;;;;;;4942012;28;20047;-90
2022/10/16 07:52:56;;;;;;;0.20;0.20;;;;;;;;;;4942019;28;20043;-90
2022/10/16 07:55:22;;;;;;;0.15;0.15;;;;;;;;;;4958410;28;20050;-90
2022/10/16 07:57:48;;;;;;;0.17;0.17;;;;;;;;;;4941960;28;20042;-88
2022/10/16 08:00:14;;;;;;;0.10;0.10;;;;;;;;;;4958011;28;20035;-92
2022/10/16 08:02:40;;;;;;;0.10;0.10;;;;;;;;;;4941701;28;20042;-89
2022/10/16 08:05:07;;;;;;;0.10;0.10;;;;;;;;;;4957858;28;20130;-89
2022/10/16 08:07:33;;;;;;;0.25;0.25;;;;;;;;;;4957100;28;20370;-90
2022/10/16 08:09:59;;;;;;;0.10;0.10;;;;;;;;;;4973642;28;20125;-90
2022/10/16 08:12:25;;;;;;;0.10;0.10;;;;;;;;;;4930316;29;20449;-89
2022/10/16 08:14:51;;;;;;;0.10;0.10;;;;;;;;;;4923016;29;20122;-89
2022/10/16 08:17:17;;;;;;;0.10;0.10;;;;;;;;;;4900114;28;20556;-89
2022/10/16 08:19:47;;;;;;;0.10;0.10;;;;;;;;;;4919272;29;20040;-89
2022/10/16 08:22:13;;;;;;;0.10;0.10;;;;;;;;;;4913252;29;20037;-91
2022/10/16 08:24:39;;;;;;;0.38;0.38;;;;;;;;;;4916069;29;20083;-91
2022/10/16 08:27:05;;;;;;;0.10;0.10;;;;;;;;;;4915874;29;20437;-92
2022/10/16 08:29:31;;;;;;;0.10;0.10;;;;;;;;;;4900306;29;20083;-91
2022/10/16 08:31:57;;;;;;;0.10;0.10;;;;;;;;;;4915941;29;20048;-92
2022/10/16 08:34:25;;;;;;;0.20;0.20;;;;;;;;;;4916113;29;20405;-91
2022/10/16 08:36:54;;;;;;;0.10;0.10;;;;;;;;;;4916323;29;20047;-89
2022/10/16 08:39:20;;;;;;;0.10;0.10;;;;;;;;;;4916153;29;20079;-88
2022/10/16 08:41:58;;;;;;;0.20;0.20;;;;;;;;;;4915544;29;20090;-89
2022/10/16 08:44:26;;;;;;;0.10;0.10;;;;;;;;;;4915552;29;20036;-90
2022/10/16 08:47:05;;;;;;;0.10;0.10;;;;;;;;;;4915076;29;20043;-92
2022/10/16 08:49:31;;;;;;;0.10;0.10;;;;;;;;;;4915694;29;20044;-90
2022/10/16 08:51:57;;;;;;;0.47;0.20;;;;;;;;;;4898991;29;20100;-89
2022/10/16 08:54:30;;;;;;;0.10;0.10;;;;;;;;;;4900110;29;20044;-90
2022/10/16 08:56:56;;;;;;;0.10;0.10;;;;;;;;;;4899468;29;20107;-89
2022/10/16 08:59:22;;;;;;;0.10;0.10;;;;;;;;;;4900137;29;20047;-86
2022/10/16 09:01:50;;;;;;;0.10;0.10;;;;;;;;;;4899301;29;20040;-88
2022/10/16 09:04:34;;;;;;;0.10;0.10;;;;;;;;;;4899620;29;20104;-88
2022/10/16 09:07:00;;;;;;;0.10;0.10;;;;;;;;;;4915240;29;20371;-89
2022/10/16 09:09:39;;;;;;;0.10;0.10;;;;;;;;;;4914884;29;20131;-89
2022/10/16 09:12:08;;;;;;;0.10;0.10;;;;;;;;;;4915134;29;20056;-90
2022/10/16 09:14:41;;;;;;;0.10;0.10;;;;;;;;;;4899451;29;20482;-88
2022/10/16 09:17:13;;;;;;;0.10;0.10;;;;;;;;;;4915530;29;20468;-90
2022/10/16 09:19:41;;;;;;;0.10;0.10;;;;;;;;;;4914748;29;20080;-91
2022/10/16 09:22:12;;;;;;;0.20;0.20;;;;;;;;;;4914871;29;20234;-90
2022/10/16 09:24:38;;;;;;;0.10;0.10;;;;;;;;;;4915726;29;20048;-95
2022/10/16 09:27:04;;;;;;;0.10;0.10;;;;;;;;;;5186346;24;20386;-89
2022/10/16 09:29:30;;;;;;;0.10;0.10;;;;;;;;;;4846381;29;20053;-91
2022/10/16 09:31:56;;;;;;;0.10;0.10;;;;;;;;;;4846541;29;20048;-87
2022/10/16 09:34:33;;;;;;;0.10;0.10;;;;;;;;;;4861701;29;20048;-90
2022/10/16 09:36:59;;;;;;;0.10;0.10;;;;;;;;;;4861757;29;20588;-89
2022/10/16 09:39:25;;;;;;;0.20;0.20;;;;;;;;;;4861783;29;20037;-90
2022/10/16 09:41:51;;;;;;;0.10;0.10;;;;;;;;;;4861637;29;20049;-92
2022/10/16 09:44:23;;;;;;;0.20;0.20;;;;;;;;;;4861717;29;20056;-89
2022/10/16 09:46:49;;;;;;;;;;;;;;;;;;4861916;29;20045;-91
2022/10/16 09:49:25;;;;;;;0.10;0.10;;;;;;;;;;4861784;29;19919;-90
2022/10/16 09:51:53;;;;;;;0.10;0.10;;;;;;;;;;4861408;29;20080;-91
2022/10/16 09:54:20;;;;;;;0.60;0.52;;;;;;;;;;4861509;29;20049;-91
2022/10/16 09:56:49;;;;;;;0.35;0.35;;;;;;;;;;4861668;29;20132;-90
2022/10/16 09:59:18;;;;;;;0.10;0.10;;;;;;;;;;4876785;29;20059;-90
2022/10/16 10:01:45;;;;;;;0.10;0.10;;;;;;;;;;4864403;29;20092;-92
2022/10/16 10:04:11;;;;;;;0.10;0.10;;;;;;;;;;4865076;29;20476;-91
2022/10/16 10:06:38;;;;;;;0.10;0.10;;;;;;;;;;4881399;29;20105;-91
2022/10/16 10:09:16;;;;;;;0.10;0.10;;;;;;;;;;4861545;29;20390;-93
2022/10/16 10:11:43;;;;;;;0.10;0.10;;;;;;;;;;4876424;29;20096;-92
2022/10/16 10:14:28;;;;;;;0.10;0.10;;;;;;;;;;4861694;29;20056;-91
2022/10/16 10:17:07;;;;;;;0.10;0.10;;;;;;;;;;4861019;29;20081;-91
2022/10/16 10:19:40;;;;;;;0.10;0.10;;;;;;;;;;4876671;29;20055;-90
2022/10/16 10:22:25;;;;;;;0.10;0.10;;;;;;;;;;4861528;29;20041;-91
2022/10/16 10:24:58;;;;;;;0.10;0.10;;;;;;;;;;4879956;29;20041;-90
2022/10/16 10:27:31;;;;;;;0.10;0.10;;;;;;;;;;4865969;29;20045;-90
2022/10/16 10:30:00;;;;;;;0.20;0.20;;;;;;;;;;4898652;29;20064;-91
2022/10/16 10:32:32;;;;;;;0.10;0.10;;;;;;;;;;4890005;29;20045;-91
2022/10/16 10:34:58;;;;;;;0.10;0.10;;;;;;;;;;4902572;29;20045;-92
2022/10/16 10:37:41;;;;;;;0.17;0.17;;;;;;;;;;4911514;29;20056;-90
2022/10/16 10:40:07;;;;;;;0.10;0.10;;;;;;;;;;4900751;29;20045;-91
2022/10/16 10:42:35;;;;;;;0.10;0.10;;;;;;;;;;4910526;29;20072;-90
2022/10/16 10:45:12;;;;;;;0.10;0.10;;;;;;;;;;4894713;29;20037;-91
2022/10/16 10:47:53;;;;;;;0.10;0.10;;;;;;;;;;4893386;29;20045;-91
2022/10/16 10:50:27;;;;;;;0.10;0.10;;;;;;;;;;4870135;29;20085;-89
2022/10/16 10:52:53;;;;;;;0.10;0.10;;;;;;;;;;4879861;29;20052;-90
2022/10/16 10:55:20;;;;;;;0.10;0.10;;;;;;;;;;4864556;29;20093;-91
2022/10/16 10:57:55;;;;;;;0.10;0.10;;;;;;;;;;4864234;29;20100;-92
2022/10/16 11:00:22;;;;;;;0.10;0.10;;;;;;;;;;4864352;29;20041;-90
2022/10/16 11:03:06;;;;;;;0.10;0.10;;;;;;;;;;4879707;29;20045;-91
2022/10/16 11:05:38;;;;;;;0.10;0.10;;;;;;;;;;4864441;29;20045;-90
2022/10/16 11:08:13;;;;;;;0.10;0.10;;;;;;;;;;4864416;29;20364;-89
2022/10/16 11:10:50;;;;;;;0.10;0.10;;;;;;;;;;4864421;29;20520;-89
2022/10/16 11:13:40;;;;;;;0.10;0.10;;;;;;;;;;4879533;29;20048;-89
2022/10/16 11:16:12;;;;;;;0.20;0.20;;;;;;;;;;4863683;29;20053;-89
2022/10/16 11:18:48;;;;;;;0.10;0.10;;;;;;;;;;4848782;29;20049;-89
2022/10/16 11:21:14;;;;;;;0.10;0.10;;;;;;;;;;4863895;29;20097;-90
2022/10/16 11:23:47;;;;;;;0.10;0.10;;;;;;;;;;4864303;29;20465;-89
2022/10/16 11:26:20;;;;;;;0.20;0.20;;;;;;;;;;4864330;29;20778;-88
2022/10/16 11:28:49;;;;;;;0.10;0.10;;;;;;;;;;4863959;29;20075;-88
2022/10/16 11:31:20;;;;;;;0.10;0.10;;;;;;;;;;4845342;29;20068;-90
2022/10/16 11:33:55;;;;;;;0.20;0.20;;;;;;;;;;4845534;29;20061;-90
2022/10/16 11:36:37;;;;;;;0.20;0.20;;;;;;;;;;4845412;29;20356;-90
2022/10/16 11:39:09;;;;;;;0.10;0.10;;;;;;;;;;4845133;29;20105;-90
2022/10/16 11:41:40;;;;;;;0.10;0.10;;;;;;;;;;4844946;29;20435;-90
2022/10/16 11:44:06;;;;;;;0.10;0.10;;;;;;;;;;4829513;29;20127;-90
2022/10/16 11:46:33;;;;;;;0.20;0.20;;;;;;;;;;4845462;29;20063;-89
2022/10/16 11:49:08;;;;;;;0.20;0.20;;;;;;;;;;4830120;29;20101;-89
2022/10/16 11:51:37;;;;;;;0.10;0.10;;;;;;;;;;4829861;29;20113;-90
2022/10/16 11:54:15;;;;;;;0.10;0.10;;;;;;;;;;4845111;29;20098;-90
2022/10/16 11:56:41;;;;;;;0.10;0.10;;;;;;;;;;4830169;29;20097;-90
2022/10/16 11:59:13;;;;;;;0.10;0.10;;;;;;;;;;4844998;29;20512;-90
2022/10/16 12:01:39;;;;;;;0.20;0.20;;;;;;;;;;4844521;29;20033;-89
2022/10/16 12:04:16;;;;;;;0.10;0.10;;;;;;;;;;4844756;29;20500;-89
2022/10/16 12:06:42;;;;;;;0.10;0.10;;;;;;;;;;4829469;29;20042;-88
2022/10/16 12:09:26;;;;;;;0.10;0.10;;;;;;;;;;4844586;29;20048;-90
2022/10/16 12:11:52;;;;;;;0.10;0.10;;;;;;;;;;4829412;29;20049;-88
2022/10/16 12:14:19;;;;;;;0.10;0.10;;;;;;;;;;4844684;29;20097;-88
2022/10/16 12:17:05;;;;;;;0.10;0.10;;;;;;;;;;4844603;29;20064;-88
2022/10/16 12:19:31;;;;;;;0.10;0.10;;;;;;;;;;4844960;29;20056;-89
2022/10/16 12:21:58;;;;;;;0.15;0.15;;;;;;;;;;4844545;29;20045;-89
2022/10/16 12:24:27;;;;;;;0.10;0.10;;;;;;;;;;4829444;29;20111;-88
2022/10/16 12:26:53;;;;;;;0.10;0.10;;;;;;;;;;4860898;29;20057;-91
2022/10/16 12:29:30;;;;;;;1.35;0.30;;;;;;;;;;4896847;29;20131;-90
2022/10/16 12:31:56;;;;;;;0.10;0.10;;;;;;;;;;4895291;29;20427;-88
2022/10/16 12:34:38;;;;;;;0.20;0.20;;;;;;;;;;4881836;29;20127;-90
2022/10/16 12:37:14;;;;;;;0.10;0.10;;;;;;;;;;4882627;29;20044;-90
2022/10/16 12:39:40;;;;;;;0.10;0.10;;;;;;;;;;4881997;29;20414;-90
2022/10/16 12:42:19;;;;;;;0.10;0.10;;;;;;;;;;4881285;29;20044;-90
2022/10/16 12:44:45;;;;;;;0.10;0.10;;;;;;;;;;4881449;29;20079;-90
2022/10/16 12:47:21;;;;;;;0.30;0.30;;;;;;;;;;4881312;29;20086;-89
2022/10/16 12:49:52;;;;;;;0.10;0.10;;;;;;;;;;4880986;29;20056;-90
2022/10/16 12:52:28;;;;;;;0.10;0.10;;;;;;;;;;4880823;29;20143;-90
2022/10/16 12:54:59;;;;;;;0.10;0.10;;;;;;;;;;4880655;29;20044;-90
2022/10/16 12:57:31;;;;;;;0.10;0.10;;;;;;;;;;4881205;29;20045;-90
2022/10/16 13:00:16;;;;;;;0.10;0.10;;;;;;;;;;4880938;29;20052;-90
2022/10/16 13:02:49;;;;;;;0.10;0.10;;;;;;;;;;4880729;29;20044;-91
2022/10/16 13:05:39;;;;;;;3.92;0.32;;;;;;;;;;4880950;29;20076;-90
2022/10/16 13:08:14;;;;;;;0.10;0.10;;;;;;;;;;4889052;29;20044;-90
2022/10/16 13:10:52;;;;;;;0.10;0.10;;;;;;;;;;4880647;29;20132;-90
2022/10/16 13:13:21;;;;;;;0.10;0.10;;;;;;;;;;4881004;29;20048;-91
2022/10/16 13:16:06;;;;;;;0.10;0.10;;;;;;;;;;4880516;29;20083;-91
2022/10/16 13:18:51;;;;;;;0.10;0.10;;;;;;;;;;4880712;29;20048;-90
2022/10/16 13:21:30;;;;;;;0.10;0.10;;;;;;;;;;4880247;29;20041;-91
2022/10/16 13:24:15;;;;;;;0.10;0.10;;;;;;;;;;4865174;29;20033;-90
2022/10/16 13:26:43;;;;;;;0.10;0.10;;;;;;;;;;4861833;29;20566;-90
2022/10/16 13:29:09;;;;;;;0.10;0.10;;;;;;;;;;4877338;29;20061;-91
2022/10/16 13:31:36;;;;;;;0.10;0.10;;;;;;;;;;4877395;29;20134;-90
2022/10/16 13:34:05;;;;;;;0.20;0.20;;;;;;;;;;4862516;29;20053;-91
2022/10/16 13:36:34;;;;;;;0.10;0.10;;;;;;;;;;4862375;29;20504;-89
2022/10/16 13:39:07;;;;;;;0.17;0.17;;;;;;;;;;4862048;29;20412;-89
2022/10/16 13:41:33;;;;;;;0.20;0.20;;;;;;;;;;4861841;29;20097;-89
2022/10/16 13:43:59;;;;;;;0.10;0.10;;;;;;;;;;4861674;29;20049;-89
2022/10/16 13:46:26;;;;;;;0.10;0.10;;;;;;;;;;4876724;29;20435;-90
2022/10/16 13:48:58;;;;;;;0.10;0.10;;;;;;;;;;4877368;29;20491;-90
2022/10/16 13:51:25;;;;;;;0.10;0.10;;;;;;;;;;4861905;29;20380;-90
2022/10/16 13:53:51;;;;;;;0.10;0.10;;;;;;;;;;4868885;29;20044;-90
2022/10/16 13:56:18;;;;;;;0.10;0.10;;;;;;;;;;4880041;29;20045;-90
2022/10/16 13:58:44;;;;;;;0.10;0.10;;;;;;;;;;4895399;29;20646;-89
2022/10/16 14:01:17;;;;;;;0.10;0.10;;;;;;;;;;4879882;29;20435;-89
2022/10/16 14:03:43;;;;;;;0.10;0.10;;;;;;;;;;4895709;29;20100;-89
2022/10/16 14:06:17;;;;;;;0.20;0.20;;;;;;;;;;4895223;29;20089;-89
2022/10/16 14:08:44;;;;;;;0.10;0.10;;;;;;;;;;4895849;29;20399;-89
2022/10/16 14:11:10;;;;;;;0.10;0.10;;;;;;;;;;4880181;29;20045;-90
2022/10/16 14:13:40;;;;;;;0.10;0.10;;;;;;;;;;4880104;29;20055;-89
2022/10/16 14:16:07;;;;;;;0.10;0.10;;;;;;;;;;4880143;29;20048;-89
2022/10/16 14:18:33;;;;;;;0.13;0.13;;;;;;;;;;4880108;29;20056;-89
2022/10/16 14:21:06;;;;;;;0.10;0.10;;;;;;;;;;4879756;29;20050;-89
2022/10/16 14:23:38;;;;;;;0.10;0.10;;;;;;;;;;4879846;29;20040;-89
2022/10/16 14:26:13;;;;;;;0.10;0.10;;;;;;;;;;4895202;29;20047;-88
2022/10/16 14:28:41;;;;;;;0.10;0.10;;;;;;;;;;4896600;29;20148;-89
2022/10/16 14:31:28;;;;;;;0.10;0.10;;;;;;;;;;4895729;29;20056;-87
2022/10/16 14:33:54;;;;;;;0.10;0.10;;;;;;;;;;4911201;29;20497;-89
2022/10/16 14:36:20;;;;;;;0.10;0.10;;;;;;;;;;4895092;29;20084;-91
2022/10/16 14:39:10;;;;;;;0.10;0.10;;;;;;;;;;4880132;29;20374;-92
2022/10/16 14:41:48;;;;;;;0.10;0.10;;;;;;;;;;4877923;29;20060;-90
2022/10/16 14:44:14;;;;;;;0.10;0.10;;;;;;;;;;4895418;29;20139;-91
2022/10/16 14:46:41;;;;;;;0.10;0.10;;;;;;;;;;4879610;29;20048;-91
2022/10/16 14:49:10;;;;;;;0.10;0.10;;;;;;;;;;4895395;29;20235;-90
2022/10/16 14:51:44;;;;;;;0.20;0.20;;;;;;;;;;4879663;29;20400;-90
2022/10/16 14:54:10;;;;;;;0.10;0.10;;;;;;;;;;4895925;29;20071;-88